sensor_id;sensor_type;location;lat;lon;timestamp;P1;durP1;ratioP1;P2;durP2;ratioP2
32523;SDS011;18965;52.242;20.886;2023-04-15T00:00:27;103.45;;;58.42;;
32523;SDS011;18965;52.242;20.886;2023-04-15T00:02:53;104.38;;;63.92;;
32523;SDS011;18965;52.242;20.886;2023-04-15T00:05:19;87.55;;;59.13;;
32523;SDS011;18965;52.242;20.886;2023-04-15T00:07:45;71.15;;;50.45;;
32523;SDS011;18965;52.242;20.886;2023-04-15T00:10:12;104.40;;;61.33;;
32523;SDS011;18965;52.242;20.886;2023-04-15T00:12:41;216.52;;;70.40;;
32523;SDS011;18965;52.242;20.886;2023-04-15T00:15:07;111.90;;;67.25;;
32523;SDS011;18965;52.242;20.886;2023-04-15T00:17:33;118.88;;;68.80;;
32523;SDS011;18965;52.242;20.886;2023-04-15T00:20:00;115.05;;;67.43;;
32523;SDS011;18965;52.242;20.886;2023-04-15T00:22:26;92.32;;;57.35;;
32523;SDS011;18965;52.242;20.886;2023-04-15T00:24:52;105.80;;;66.63;;
32523;SDS011;18965;52.242;20.886;2023-04-15T00:27:17;103.57;;;63.35;;
32523;SDS011;18965;52.242;20.886;2023-04-15T00:29:43;110.68;;;67.88;;
32523;SDS011;18965;52.242;20.886;2023-04-15T00:32:09;100.43;;;61.92;;
32523;SDS011;18965;52.242;20.886;2023-04-15T00:34:35;126.25;;;73.20;;
32523;SDS011;18965;52.242;20.886;2023-04-15T00:37:01;131.25;;;74.13;;
32523;SDS011;18965;52.242;20.886;2023-04-15T00:39:27;118.00;;;68.72;;
32523;SDS011;18965;52.242;20.886;2023-04-15T00:41:52;112.70;;;62.78;;
32523;SDS011;18965;52.242;20.886;2023-04-15T00:44:19;97.55;;;52.70;;
32523;SDS011;18965;52.242;20.886;2023-04-15T00:46:45;122.40;;;66.10;;
32523;SDS011;18965;52.242;20.886;2023-04-15T00:49:12;104.18;;;63.85;;
32523;SDS011;18965;52.242;20.886;2023-04-15T00:51:38;113.05;;;66.10;;
32523;SDS011;18965;52.242;20.886;2023-04-15T00:54:04;215.65;;;77.43;;
32523;SDS011;18965;52.242;20.886;2023-04-15T00:56:35;108.18;;;63.97;;
32523;SDS011;18965;52.242;20.886;2023-04-15T00:59:02;53.28;;;21.48;;
32523;SDS011;18965;52.242;20.886;2023-04-15T01:01:28;129.75;;;72.53;;
32523;SDS011;18965;52.242;20.886;2023-04-15T01:03:55;126.57;;;72.40;;
32523;SDS011;18965;52.242;20.886;2023-04-15T01:06:24;228.38;;;81.75;;
32523;SDS011;18965;52.242;20.886;2023-04-15T01:08:51;135.18;;;75.00;;
32523;SDS011;18965;52.242;20.886;2023-04-15T01:11:18;51.38;;;42.05;;
32523;SDS011;18965;52.242;20.886;2023-04-15T01:13:43;130.60;;;70.15;;
32523;SDS011;18965;52.242;20.886;2023-04-15T01:16:10;92.90;;;50.15;;
32523;SDS011;18965;52.242;20.886;2023-04-15T01:18:37;123.43;;;65.95;;
32523;SDS011;18965;52.242;20.886;2023-04-15T01:21:03;62.85;;;49.17;;
32523;SDS011;18965;52.242;20.886;2023-04-15T01:23:30;119.43;;;65.93;;
32523;SDS011;18965;52.242;20.886;2023-04-15T01:25:56;135.80;;;70.90;;
32523;SDS011;18965;52.242;20.886;2023-04-15T01:28:23;143.48;;;75.05;;
32523;SDS011;18965;52.242;20.886;2023-04-15T01:30:50;156.23;;;76.07;;
32523;SDS011;18965;52.242;20.886;2023-04-15T01:33:29;134.57;;;75.05;;
32523;SDS011;18965;52.242;20.886;2023-04-15T01:35:55;67.57;;;50.75;;
32523;SDS011;18965;52.242;20.886;2023-04-15T01:38:21;119.85;;;68.13;;
32523;SDS011;18965;52.242;20.886;2023-04-15T01:40:47;134.48;;;72.20;;
32523;SDS011;18965;52.242;20.886;2023-04-15T01:43:12;130.75;;;71.15;;
32523;SDS011;18965;52.242;20.886;2023-04-15T01:45:39;120.75;;;68.93;;
32523;SDS011;18965;52.242;20.886;2023-04-15T01:48:05;218.60;;;82.60;;
32523;SDS011;18965;52.242;20.886;2023-04-15T01:50:31;138.23;;;72.97;;
32523;SDS011;18965;52.242;20.886;2023-04-15T01:52:57;146.82;;;76.03;;
32523;SDS011;18965;52.242;20.886;2023-04-15T01:55:22;116.65;;;68.45;;
32523;SDS011;18965;52.242;20.886;2023-04-15T01:57:48;105.22;;;65.88;;
32523;SDS011;18965;52.242;20.886;2023-04-15T02:00:14;81.45;;;52.47;;
32523;SDS011;18965;52.242;20.886;2023-04-15T02:02:40;60.70;;;38.63;;
32523;SDS011;18965;52.242;20.886;2023-04-15T02:05:06;38.90;;;15.18;;
32523;SDS011;18965;52.242;20.886;2023-04-15T02:07:32;21.98;;;12.73;;
32523;SDS011;18965;52.242;20.886;2023-04-15T02:09:57;88.65;;;51.08;;
32523;SDS011;18965;52.242;20.886;2023-04-15T02:12:23;111.45;;;64.97;;
32523;SDS011;18965;52.242;20.886;2023-04-15T02:14:49;139.48;;;29.23;;
32523;SDS011;18965;52.242;20.886;2023-04-15T02:17:15;74.57;;;42.08;;
32523;SDS011;18965;52.242;20.886;2023-04-15T02:19:41;34.25;;;21.85;;
32523;SDS011;18965;52.242;20.886;2023-04-15T02:22:07;109.10;;;63.35;;
32523;SDS011;18965;52.242;20.886;2023-04-15T02:24:33;24.13;;;20.52;;
32523;SDS011;18965;52.242;20.886;2023-04-15T02:26:59;22.95;;;14.23;;
32523;SDS011;18965;52.242;20.886;2023-04-15T02:29:25;127.85;;;24.95;;
32523;SDS011;18965;52.242;20.886;2023-04-15T02:31:51;100.72;;;57.53;;
32523;SDS011;18965;52.242;20.886;2023-04-15T02:34:17;106.28;;;63.53;;
32523;SDS011;18965;52.242;20.886;2023-04-15T02:36:43;21.38;;;18.73;;
32523;SDS011;18965;52.242;20.886;2023-04-15T02:39:08;87.75;;;56.03;;
32523;SDS011;18965;52.242;20.886;2023-04-15T02:41:35;50.35;;;37.60;;
32523;SDS011;18965;52.242;20.886;2023-04-15T02:44:00;134.00;;;71.68;;
32523;SDS011;18965;52.242;20.886;2023-04-15T02:46:26;137.02;;;71.13;;
32523;SDS011;18965;52.242;20.886;2023-04-15T02:48:52;150.52;;;74.13;;
32523;SDS011;18965;52.242;20.886;2023-04-15T02:51:21;83.60;;;49.25;;
32523;SDS011;18965;52.242;20.886;2023-04-15T02:53:47;51.58;;;44.97;;
32523;SDS011;18965;52.242;20.886;2023-04-15T02:56:13;141.88;;;72.22;;
32523;SDS011;18965;52.242;20.886;2023-04-15T02:58:41;143.65;;;68.22;;
32523;SDS011;18965;52.242;20.886;2023-04-15T03:01:07;58.00;;;31.45;;
32523;SDS011;18965;52.242;20.886;2023-04-15T03:03:33;159.38;;;77.65;;
32523;SDS011;18965;52.242;20.886;2023-04-15T03:05:59;167.23;;;82.45;;
32523;SDS011;18965;52.242;20.886;2023-04-15T03:08:25;79.22;;;54.53;;
32523;SDS011;18965;52.242;20.886;2023-04-15T03:10:51;148.50;;;73.82;;
32523;SDS011;18965;52.242;20.886;2023-04-15T03:13:17;55.90;;;39.90;;
32523;SDS011;18965;52.242;20.886;2023-04-15T03:15:46;206.45;;;67.70;;
32523;SDS011;18965;52.242;20.886;2023-04-15T03:18:12;167.05;;;82.95;;
32523;SDS011;18965;52.242;20.886;2023-04-15T03:20:38;128.10;;;71.05;;
32523;SDS011;18965;52.242;20.886;2023-04-15T03:23:03;46.65;;;38.13;;
32523;SDS011;18965;52.242;20.886;2023-04-15T03:25:29;160.70;;;79.75;;
32523;SDS011;18965;52.242;20.886;2023-04-15T03:27:55;126.47;;;66.60;;
32523;SDS011;18965;52.242;20.886;2023-04-15T03:30:21;124.88;;;66.65;;
32523;SDS011;18965;52.242;20.886;2023-04-15T03:32:46;47.05;;;41.35;;
32523;SDS011;18965;52.242;20.886;2023-04-15T03:35:12;52.78;;;33.90;;
32523;SDS011;18965;52.242;20.886;2023-04-15T03:37:38;117.18;;;65.15;;
32523;SDS011;18965;52.242;20.886;2023-04-15T03:40:04;67.22;;;49.03;;
32523;SDS011;18965;52.242;20.886;2023-04-15T03:42:30;160.50;;;79.93;;
32523;SDS011;18965;52.242;20.886;2023-04-15T03:44:55;89.07;;;61.05;;
32523;SDS011;18965;52.242;20.886;2023-04-15T03:47:21;158.38;;;81.00;;
32523;SDS011;18965;52.242;20.886;2023-04-15T03:49:47;149.23;;;75.22;;
32523;SDS011;18965;52.242;20.886;2023-04-15T03:52:12;112.00;;;65.85;;
32523;SDS011;18965;52.242;20.886;2023-04-15T03:54:38;175.95;;;82.90;;
32523;SDS011;18965;52.242;20.886;2023-04-15T03:57:05;130.07;;;71.95;;
32523;SDS011;18965;52.242;20.886;2023-04-15T03:59:31;181.20;;;55.15;;
32523;SDS011;18965;52.242;20.886;2023-04-15T04:01:57;144.63;;;75.57;;
32523;SDS011;18965;52.242;20.886;2023-04-15T04:04:22;122.78;;;67.32;;
32523;SDS011;18965;52.242;20.886;2023-04-15T04:06:48;177.77;;;81.93;;
32523;SDS011;18965;52.242;20.886;2023-04-15T04:09:14;107.80;;;62.17;;
32523;SDS011;18965;52.242;20.886;2023-04-15T04:11:39;77.28;;;57.30;;
32523;SDS011;18965;52.242;20.886;2023-04-15T04:14:05;179.10;;;86.05;;
32523;SDS011;18965;52.242;20.886;2023-04-15T04:16:31;196.35;;;88.55;;
32523;SDS011;18965;52.242;20.886;2023-04-15T04:18:56;330.23;;;211.50;;
32523;SDS011;18965;52.242;20.886;2023-04-15T04:21:22;176.20;;;78.60;;
32523;SDS011;18965;52.242;20.886;2023-04-15T04:23:48;159.60;;;79.38;;
32523;SDS011;18965;52.242;20.886;2023-04-15T04:26:13;45.20;;;31.83;;
32523;SDS011;18965;52.242;20.886;2023-04-15T04:28:39;38.03;;;16.48;;
32523;SDS011;18965;52.242;20.886;2023-04-15T04:31:06;58.83;;;36.75;;
32523;SDS011;18965;52.242;20.886;2023-04-15T04:33:32;207.00;;;72.55;;
32523;SDS011;18965;52.242;20.886;2023-04-15T04:35:58;69.47;;;53.30;;
32523;SDS011;18965;52.242;20.886;2023-04-15T04:38:23;78.80;;;69.88;;
32523;SDS011;18965;52.242;20.886;2023-04-15T04:40:49;78.43;;;56.28;;
32523;SDS011;18965;52.242;20.886;2023-04-15T04:43:15;86.38;;;54.47;;
32523;SDS011;18965;52.242;20.886;2023-04-15T04:45:42;106.47;;;79.97;;
32523;SDS011;18965;52.242;20.886;2023-04-15T04:48:08;111.95;;;93.25;;
32523;SDS011;18965;52.242;20.886;2023-04-15T04:50:35;60.50;;;47.42;;
32523;SDS011;18965;52.242;20.886;2023-04-15T04:53:01;111.90;;;75.53;;
32523;SDS011;18965;52.242;20.886;2023-04-15T04:55:27;89.50;;;58.05;;
32523;SDS011;18965;52.242;20.886;2023-04-15T04:57:52;188.75;;;82.53;;
32523;SDS011;18965;52.242;20.886;2023-04-15T05:00:18;278.02;;;97.30;;
32523;SDS011;18965;52.242;20.886;2023-04-15T05:02:44;357.30;;;105.63;;
32523;SDS011;18965;52.242;20.886;2023-04-15T05:05:10;235.57;;;93.35;;
32523;SDS011;18965;52.242;20.886;2023-04-15T05:07:37;201.13;;;87.95;;
32523;SDS011;18965;52.242;20.886;2023-04-15T05:10:03;145.93;;;74.70;;
32523;SDS011;18965;52.242;20.886;2023-04-15T05:12:30;232.18;;;92.25;;
32523;SDS011;18965;52.242;20.886;2023-04-15T05:14:56;213.90;;;86.03;;
32523;SDS011;18965;52.242;20.886;2023-04-15T05:17:22;194.23;;;84.93;;
32523;SDS011;18965;52.242;20.886;2023-04-15T05:19:48;213.80;;;90.78;;
32523;SDS011;18965;52.242;20.886;2023-04-15T05:22:13;165.75;;;74.70;;
32523;SDS011;18965;52.242;20.886;2023-04-15T05:24:39;121.50;;;67.35;;
32523;SDS011;18965;52.242;20.886;2023-04-15T05:27:05;202.38;;;86.03;;
32523;SDS011;18965;52.242;20.886;2023-04-15T05:29:32;299.25;;;97.93;;
32523;SDS011;18965;52.242;20.886;2023-04-15T05:31:58;133.55;;;71.47;;
32523;SDS011;18965;52.242;20.886;2023-04-15T05:34:24;129.35;;;69.40;;
32523;SDS011;18965;52.242;20.886;2023-04-15T05:36:50;190.00;;;83.93;;
32523;SDS011;18965;52.242;20.886;2023-04-15T05:39:16;135.13;;;70.65;;
32523;SDS011;18965;52.242;20.886;2023-04-15T05:41:42;170.18;;;79.30;;
32523;SDS011;18965;52.242;20.886;2023-04-15T05:44:08;213.93;;;79.70;;
32523;SDS011;18965;52.242;20.886;2023-04-15T05:46:33;152.15;;;74.85;;
32523;SDS011;18965;52.242;20.886;2023-04-15T05:48:59;154.63;;;75.78;;
32523;SDS011;18965;52.242;20.886;2023-04-15T05:51:25;74.03;;;51.33;;
32523;SDS011;18965;52.242;20.886;2023-04-15T05:53:51;156.60;;;76.15;;
32523;SDS011;18965;52.242;20.886;2023-04-15T05:56:16;77.88;;;52.67;;
32523;SDS011;18965;52.242;20.886;2023-04-15T05:58:44;126.57;;;67.72;;
32523;SDS011;18965;52.242;20.886;2023-04-15T06:01:10;108.75;;;64.38;;
32523;SDS011;18965;52.242;20.886;2023-04-15T06:03:36;204.88;;;83.93;;
32523;SDS011;18965;52.242;20.886;2023-04-15T06:06:02;95.30;;;58.22;;
32523;SDS011;18965;52.242;20.886;2023-04-15T06:08:28;99.63;;;57.92;;
32523;SDS011;18965;52.242;20.886;2023-04-15T06:10:54;129.70;;;70.40;;
32523;SDS011;18965;52.242;20.886;2023-04-15T06:13:20;146.63;;;73.88;;
32523;SDS011;18965;52.242;20.886;2023-04-15T06:15:46;161.88;;;76.68;;
32523;SDS011;18965;52.242;20.886;2023-04-15T06:18:11;83.28;;;50.10;;
32523;SDS011;18965;52.242;20.886;2023-04-15T06:20:37;114.60;;;60.35;;
32523;SDS011;18965;52.242;20.886;2023-04-15T06:23:03;86.95;;;56.17;;
32523;SDS011;18965;52.242;20.886;2023-04-15T06:25:28;145.93;;;70.85;;
32523;SDS011;18965;52.242;20.886;2023-04-15T06:27:54;60.95;;;47.67;;
32523;SDS011;18965;52.242;20.886;2023-04-15T06:30:20;191.82;;;83.28;;
32523;SDS011;18965;52.242;20.886;2023-04-15T06:32:45;155.82;;;73.63;;
32523;SDS011;18965;52.242;20.886;2023-04-15T06:35:11;115.63;;;58.22;;
32523;SDS011;18965;52.242;20.886;2023-04-15T06:37:37;112.57;;;57.13;;
32523;SDS011;18965;52.242;20.886;2023-04-15T06:40:03;127.35;;;68.88;;
32523;SDS011;18965;52.242;20.886;2023-04-15T06:42:30;235.73;;;81.50;;
32523;SDS011;18965;52.242;20.886;2023-04-15T06:44:56;288.73;;;92.78;;
32523;SDS011;18965;52.242;20.886;2023-04-15T06:47:21;209.35;;;75.90;;
32523;SDS011;18965;52.242;20.886;2023-04-15T06:49:47;164.52;;;76.63;;
32523;SDS011;18965;52.242;20.886;2023-04-15T06:52:13;58.50;;;44.28;;
32523;SDS011;18965;52.242;20.886;2023-04-15T06:54:40;163.65;;;77.65;;
32523;SDS011;18965;52.242;20.886;2023-04-15T06:57:06;99.85;;;61.30;;
32523;SDS011;18965;52.242;20.886;2023-04-15T06:59:33;128.75;;;70.18;;
32523;SDS011;18965;52.242;20.886;2023-04-15T07:01:59;134.20;;;70.10;;
32523;SDS011;18965;52.242;20.886;2023-04-15T07:04:25;52.58;;;38.03;;
32523;SDS011;18965;52.242;20.886;2023-04-15T07:06:52;34.05;;;26.80;;
32523;SDS011;18965;52.242;20.886;2023-04-15T07:09:19;37.28;;;27.52;;
32523;SDS011;18965;52.242;20.886;2023-04-15T07:11:45;41.33;;;22.73;;
32523;SDS011;18965;52.242;20.886;2023-04-15T07:14:11;45.85;;;20.63;;
32523;SDS011;18965;52.242;20.886;2023-04-15T07:16:37;26.77;;;18.25;;
32523;SDS011;18965;52.242;20.886;2023-04-15T07:19:02;44.55;;;13.68;;
32523;SDS011;18965;52.242;20.886;2023-04-15T07:21:28;25.92;;;14.43;;
32523;SDS011;18965;52.242;20.886;2023-04-15T07:23:54;36.83;;;23.42;;
32523;SDS011;18965;52.242;20.886;2023-04-15T07:26:19;41.92;;;17.30;;
32523;SDS011;18965;52.242;20.886;2023-04-15T07:28:45;36.40;;;19.38;;
32523;SDS011;18965;52.242;20.886;2023-04-15T07:31:11;50.63;;;39.08;;
32523;SDS011;18965;52.242;20.886;2023-04-15T07:33:37;75.63;;;37.08;;
32523;SDS011;18965;52.242;20.886;2023-04-15T07:36:03;60.83;;;43.72;;
32523;SDS011;18965;52.242;20.886;2023-04-15T07:38:29;58.50;;;43.28;;
32523;SDS011;18965;52.242;20.886;2023-04-15T07:40:54;83.97;;;56.28;;
32523;SDS011;18965;52.242;20.886;2023-04-15T07:43:20;92.32;;;59.03;;
32523;SDS011;18965;52.242;20.886;2023-04-15T07:45:46;82.50;;;55.80;;
32523;SDS011;18965;52.242;20.886;2023-04-15T07:48:12;161.05;;;75.07;;
32523;SDS011;18965;52.242;20.886;2023-04-15T07:50:37;161.10;;;75.05;;
32523;SDS011;18965;52.242;20.886;2023-04-15T07:53:03;169.45;;;77.70;;
32523;SDS011;18965;52.242;20.886;2023-04-15T07:55:30;117.25;;;65.32;;
32523;SDS011;18965;52.242;20.886;2023-04-15T07:57:55;170.85;;;81.47;;
32523;SDS011;18965;52.242;20.886;2023-04-15T08:00:21;154.05;;;76.47;;
32523;SDS011;18965;52.242;20.886;2023-04-15T08:02:56;146.50;;;69.88;;
32523;SDS011;18965;52.242;20.886;2023-04-15T08:05:23;155.75;;;74.90;;
32523;SDS011;18965;52.242;20.886;2023-04-15T08:07:49;144.77;;;71.70;;
32523;SDS011;18965;52.242;20.886;2023-04-15T08:10:15;167.85;;;81.78;;
32523;SDS011;18965;52.242;20.886;2023-04-15T08:12:41;131.88;;;69.85;;
32523;SDS011;18965;52.242;20.886;2023-04-15T08:15:07;144.18;;;70.95;;
32523;SDS011;18965;52.242;20.886;2023-04-15T08:17:33;151.32;;;71.40;;
32523;SDS011;18965;52.242;20.886;2023-04-15T08:19:59;144.35;;;68.88;;
32523;SDS011;18965;52.242;20.886;2023-04-15T08:22:25;137.50;;;67.80;;
32523;SDS011;18965;52.242;20.886;2023-04-15T08:24:51;81.20;;;46.63;;
32523;SDS011;18965;52.242;20.886;2023-04-15T08:27:17;63.47;;;49.05;;
32523;SDS011;18965;52.242;20.886;2023-04-15T08:29:43;113.38;;;65.07;;
32523;SDS011;18965;52.242;20.886;2023-04-15T08:32:09;132.45;;;69.82;;
32523;SDS011;18965;52.242;20.886;2023-04-15T08:34:35;105.93;;;56.33;;
32523;SDS011;18965;52.242;20.886;2023-04-15T08:37:01;180.50;;;81.90;;
32523;SDS011;18965;52.242;20.886;2023-04-15T08:39:26;115.82;;;57.70;;
32523;SDS011;18965;52.242;20.886;2023-04-15T08:41:58;136.27;;;69.57;;
32523;SDS011;18965;52.242;20.886;2023-04-15T08:44:32;141.52;;;66.00;;
32523;SDS011;18965;52.242;20.886;2023-04-15T08:47:02;76.13;;;52.20;;
32523;SDS011;18965;52.242;20.886;2023-04-15T08:49:28;42.95;;;31.92;;
32523;SDS011;18965;52.242;20.886;2023-04-15T08:51:55;172.75;;;77.45;;
32523;SDS011;18965;52.242;20.886;2023-04-15T08:54:23;84.28;;;52.22;;
32523;SDS011;18965;52.242;20.886;2023-04-15T08:56:49;155.43;;;74.20;;
32523;SDS011;18965;52.242;20.886;2023-04-15T08:59:16;39.63;;;24.02;;
32523;SDS011;18965;52.242;20.886;2023-04-15T09:01:42;27.33;;;11.23;;
32523;SDS011;18965;52.242;20.886;2023-04-15T09:04:08;46.95;;;14.75;;
32523;SDS011;18965;52.242;20.886;2023-04-15T09:06:36;32.03;;;9.50;;
32523;SDS011;18965;52.242;20.886;2023-04-15T09:09:04;48.45;;;10.65;;
32523;SDS011;18965;52.242;20.886;2023-04-15T09:11:30;28.13;;;10.60;;
32523;SDS011;18965;52.242;20.886;2023-04-15T09:13:55;27.58;;;23.08;;
32523;SDS011;18965;52.242;20.886;2023-04-15T09:16:21;141.65;;;68.03;;
32523;SDS011;18965;52.242;20.886;2023-04-15T09:18:48;99.93;;;58.05;;
32523;SDS011;18965;52.242;20.886;2023-04-15T09:21:15;176.88;;;79.38;;
32523;SDS011;18965;52.242;20.886;2023-04-15T09:23:58;134.13;;;64.20;;
32523;SDS011;18965;52.242;20.886;2023-04-15T09:26:32;200.27;;;84.80;;
32523;SDS011;18965;52.242;20.886;2023-04-15T09:29:06;151.18;;;72.97;;
32523;SDS011;18965;52.242;20.886;2023-04-15T09:31:34;136.15;;;69.03;;
32523;SDS011;18965;52.242;20.886;2023-04-15T09:34:01;116.78;;;60.10;;
32523;SDS011;18965;52.242;20.886;2023-04-15T09:36:27;134.13;;;65.97;;
32523;SDS011;18965;52.242;20.886;2023-04-15T09:38:57;90.30;;;49.72;;
32523;SDS011;18965;52.242;20.886;2023-04-15T09:43:50;132.88;;;67.78;;
32523;SDS011;18965;52.242;20.886;2023-04-15T09:46:16;85.07;;;55.55;;
32523;SDS011;18965;52.242;20.886;2023-04-15T09:48:42;150.55;;;73.90;;
32523;SDS011;18965;52.242;20.886;2023-04-15T09:51:08;139.30;;;72.15;;
32523;SDS011;18965;52.242;20.886;2023-04-15T09:53:34;227.95;;;88.30;;
32523;SDS011;18965;52.242;20.886;2023-04-15T09:56:02;134.40;;;65.00;;
32523;SDS011;18965;52.242;20.886;2023-04-15T09:58:29;91.95;;;57.55;;
32523;SDS011;18965;52.242;20.886;2023-04-15T10:00:57;167.68;;;76.55;;
32523;SDS011;18965;52.242;20.886;2023-04-15T10:03:28;145.15;;;71.32;;
32523;SDS011;18965;52.242;20.886;2023-04-15T10:05:55;201.25;;;82.90;;
32523;SDS011;18965;52.242;20.886;2023-04-15T10:08:23;60.67;;;40.90;;
32523;SDS011;18965;52.242;20.886;2023-04-15T10:10:54;169.40;;;77.15;;
32523;SDS011;18965;52.242;20.886;2023-04-15T10:13:21;65.60;;;42.40;;
32523;SDS011;18965;52.242;20.886;2023-04-15T10:15:56;159.15;;;73.95;;
32523;SDS011;18965;52.242;20.886;2023-04-15T10:18:22;73.10;;;45.05;;
32523;SDS011;18965;52.242;20.886;2023-04-15T10:20:50;61.70;;;20.65;;
32523;SDS011;18965;52.242;20.886;2023-04-15T10:23:17;36.08;;;23.58;;
32523;SDS011;18965;52.242;20.886;2023-04-15T10:25:45;94.88;;;34.17;;
32523;SDS011;18965;52.242;20.886;2023-04-15T10:28:11;41.42;;;26.98;;
32523;SDS011;18965;52.242;20.886;2023-04-15T10:30:37;41.92;;;20.83;;
32523;SDS011;18965;52.242;20.886;2023-04-15T10:33:03;53.20;;;36.17;;
32523;SDS011;18965;52.242;20.886;2023-04-15T10:35:30;170.20;;;80.20;;
32523;SDS011;18965;52.242;20.886;2023-04-15T10:37:57;129.75;;;67.70;;
32523;SDS011;18965;52.242;20.886;2023-04-15T10:40:27;150.80;;;76.03;;
32523;SDS011;18965;52.242;20.886;2023-04-15T10:42:56;135.27;;;62.50;;
32523;SDS011;18965;52.242;20.886;2023-04-15T10:45:31;19.80;;;7.65;;
32523;SDS011;18965;52.242;20.886;2023-04-15T10:47:59;26.58;;;6.28;;
32523;SDS011;18965;52.242;20.886;2023-04-15T10:50:27;21.40;;;6.97;;
32523;SDS011;18965;52.242;20.886;2023-04-15T10:52:55;28.17;;;7.28;;
32523;SDS011;18965;52.242;20.886;2023-04-15T10:55:25;35.75;;;13.02;;
32523;SDS011;18965;52.242;20.886;2023-04-15T10:57:52;69.22;;;45.85;;
32523;SDS011;18965;52.242;20.886;2023-04-15T11:00:19;66.30;;;51.35;;
32523;SDS011;18965;52.242;20.886;2023-04-15T11:05:17;130.25;;;67.68;;
32523;SDS011;18965;52.242;20.886;2023-04-15T11:07:54;158.70;;;79.38;;
32523;SDS011;18965;52.242;20.886;2023-04-15T11:12:56;116.93;;;63.40;;
32523;SDS011;18965;52.242;20.886;2023-04-15T11:20:38;62.33;;;28.92;;
32523;SDS011;18965;52.242;20.886;2023-04-15T11:23:05;109.30;;;62.92;;
32523;SDS011;18965;52.242;20.886;2023-04-15T11:25:32;116.03;;;66.10;;
32523;SDS011;18965;52.242;20.886;2023-04-15T11:28:00;108.82;;;61.28;;
32523;SDS011;18965;52.242;20.886;2023-04-15T11:30:30;98.88;;;49.40;;
32523;SDS011;18965;52.242;20.886;2023-04-15T11:32:58;54.15;;;35.30;;
32523;SDS011;18965;52.242;20.886;2023-04-15T11:35:25;51.60;;;22.58;;
32523;SDS011;18965;52.242;20.886;2023-04-15T11:37:52;47.67;;;25.58;;
32523;SDS011;18965;52.242;20.886;2023-04-15T11:40:22;55.45;;;19.10;;
32523;SDS011;18965;52.242;20.886;2023-04-15T11:45:52;27.10;;;6.03;;
32523;SDS011;18965;52.242;20.886;2023-04-15T11:50:45;24.60;;;6.15;;
32523;SDS011;18965;52.242;20.886;2023-04-15T11:53:11;20.27;;;10.50;;
32523;SDS011;18965;52.242;20.886;2023-04-15T11:55:41;58.42;;;27.40;;
32523;SDS011;18965;52.242;20.886;2023-04-15T12:01:02;58.88;;;36.30;;
32523;SDS011;18965;52.242;20.886;2023-04-15T12:03:38;43.25;;;23.55;;
32523;SDS011;18965;52.242;20.886;2023-04-15T12:13:52;32.28;;;13.15;;
32523;SDS011;18965;52.242;20.886;2023-04-15T12:16:19;25.33;;;5.15;;
32523;SDS011;18965;52.242;20.886;2023-04-15T12:18:46;19.80;;;4.07;;
32523;SDS011;18965;52.242;20.886;2023-04-15T12:21:27;23.20;;;5.10;;
32523;SDS011;18965;52.242;20.886;2023-04-15T12:24:00;13.85;;;3.72;;
32523;SDS011;18965;52.242;20.886;2023-04-15T12:26:28;25.73;;;4.80;;
32523;SDS011;18965;52.242;20.886;2023-04-15T12:29:24;17.95;;;4.43;;
32523;SDS011;18965;52.242;20.886;2023-04-15T12:31:53;24.92;;;4.97;;
32523;SDS011;18965;52.242;20.886;2023-04-15T12:34:30;33.15;;;6.18;;
32523;SDS011;18965;52.242;20.886;2023-04-15T12:36:57;53.92;;;7.90;;
32523;SDS011;18965;52.242;20.886;2023-04-15T12:39:25;30.85;;;9.60;;
32523;SDS011;18965;52.242;20.886;2023-04-15T12:41:52;18.10;;;5.53;;
32523;SDS011;18965;52.242;20.886;2023-04-15T12:44:18;25.15;;;5.03;;
32523;SDS011;18965;52.242;20.886;2023-04-15T12:46:46;20.27;;;5.38;;
32523;SDS011;18965;52.242;20.886;2023-04-15T12:49:12;33.78;;;7.00;;
32523;SDS011;18965;52.242;20.886;2023-04-15T12:51:44;30.45;;;6.57;;
32523;SDS011;18965;52.242;20.886;2023-04-15T12:54:09;46.60;;;9.57;;
32523;SDS011;18965;52.242;20.886;2023-04-15T12:56:35;25.98;;;6.60;;
32523;SDS011;18965;52.242;20.886;2023-04-15T12:59:01;32.83;;;6.70;;
32523;SDS011;18965;52.242;20.886;2023-04-15T13:01:26;20.75;;;7.10;;
32523;SDS011;18965;52.242;20.886;2023-04-15T13:03:52;26.38;;;6.80;;
32523;SDS011;18965;52.242;20.886;2023-04-15T13:06:18;35.63;;;8.90;;
32523;SDS011;18965;52.242;20.886;2023-04-15T13:08:44;111.63;;;54.45;;
32523;SDS011;18965;52.242;20.886;2023-04-15T13:11:09;38.78;;;11.30;;
32523;SDS011;18965;52.242;20.886;2023-04-15T13:13:35;78.63;;;43.30;;
32523;SDS011;18965;52.242;20.886;2023-04-15T13:16:01;121.65;;;57.05;;
32523;SDS011;18965;52.242;20.886;2023-04-15T13:18:26;55.25;;;20.25;;
32523;SDS011;18965;52.242;20.886;2023-04-15T13:20:53;23.90;;;14.10;;
32523;SDS011;18965;52.242;20.886;2023-04-15T13:23:19;23.23;;;11.60;;
32523;SDS011;18965;52.242;20.886;2023-04-15T13:25:45;37.83;;;23.73;;
32523;SDS011;18965;52.242;20.886;2023-04-15T13:28:11;32.13;;;16.50;;
32523;SDS011;18965;52.242;20.886;2023-04-15T13:30:38;24.08;;;10.85;;
32523;SDS011;18965;52.242;20.886;2023-04-15T13:33:04;46.10;;;12.98;;
32523;SDS011;18965;52.242;20.886;2023-04-15T13:35:31;37.05;;;15.65;;
32523;SDS011;18965;52.242;20.886;2023-04-15T13:37:56;38.95;;;21.05;;
32523;SDS011;18965;52.242;20.886;2023-04-15T13:40:22;40.72;;;22.10;;
32523;SDS011;18965;52.242;20.886;2023-04-15T13:42:48;27.77;;;13.13;;
32523;SDS011;18965;52.242;20.886;2023-04-15T13:45:15;43.55;;;19.30;;
32523;SDS011;18965;52.242;20.886;2023-04-15T13:47:41;43.50;;;11.93;;
32523;SDS011;18965;52.242;20.886;2023-04-15T13:50:07;57.97;;;18.25;;
32523;SDS011;18965;52.242;20.886;2023-04-15T13:52:34;23.42;;;7.55;;
32523;SDS011;18965;52.242;20.886;2023-04-15T13:54:59;22.58;;;13.38;;
32523;SDS011;18965;52.242;20.886;2023-04-15T13:57:25;49.90;;;11.80;;
32523;SDS011;18965;52.242;20.886;2023-04-15T13:59:51;34.03;;;14.88;;
32523;SDS011;18965;52.242;20.886;2023-04-15T14:02:16;33.53;;;17.05;;
32523;SDS011;18965;52.242;20.886;2023-04-15T14:04:45;40.40;;;34.65;;
32523;SDS011;18965;52.242;20.886;2023-04-15T14:07:10;42.35;;;29.42;;
32523;SDS011;18965;52.242;20.886;2023-04-15T14:09:36;28.08;;;7.47;;
32523;SDS011;18965;52.242;20.886;2023-04-15T14:12:02;36.55;;;26.13;;
32523;SDS011;18965;52.242;20.886;2023-04-15T14:14:28;22.35;;;6.55;;
32523;SDS011;18965;52.242;20.886;2023-04-15T14:16:54;28.88;;;18.17;;
32523;SDS011;18965;52.242;20.886;2023-04-15T14:19:20;31.45;;;18.02;;
32523;SDS011;18965;52.242;20.886;2023-04-15T14:21:46;21.13;;;14.23;;
32523;SDS011;18965;52.242;20.886;2023-04-15T14:24:12;24.00;;;6.32;;
32523;SDS011;18965;52.242;20.886;2023-04-15T14:26:37;41.80;;;29.60;;
32523;SDS011;18965;52.242;20.886;2023-04-15T14:29:03;42.30;;;28.77;;